Etusivu
METAR-TAF:

METAR-TAF

Lentoasemat :

Central Park

New York, New York, Yhdysvallat

Leveyspiiri: 40-47-00N, Pituuspiiri: 073-58-00W, korkeus merenpinnasta: 47 m

Tämänhetkinen sää

Tämä raportti tehtiin 18 minuuttia sitten, kello 06.51 UTC
Tuuli 5 kn eri suunnista
Lämpötila 6°C
Kosteus 49%
Ilmanpaine 1008 hPa
Näkyvyys: 16.1 km
selkeää

METAR: KNYC 020651Z AUTO VRB05KT 10SM CLR 06/M04 A2978 RMK AO2 SLP076 T00611039

Aika: 03:09 (07:09 UTC)


TAF: puuttuu

Säähavainnot ja -ennusteet yli 4000 lentoasemalta (METAR- ja TAF-raportit).

Käytössä olevat sääasemat on merkitty karttaan keltaisilla ja punaisilla pisteillä.

Aseta hiiri pisteen päälle nähdäksesi sääaseman nimen.

Klikkaa sitten nähdäksesi säähavainnot ja -ennusteet.

Kartan vaihtaminen: klikkaa mustalla rastilla varustettuja vihreitä pisteitä, niin voit zoomata sisään; viivalla varustettua vihreää pistettä, niin voit zoomata ulos tai vihreitä nuolia, niin pääset viereisille kartoille.


METAR-TAF: